Time;durP1;ratioP1;P1;durP2;ratioP2;P2;SDS_P1;SDS_P2;PMS_P1;PMS_P2;Temp;Humidity;BMP_temperature;BMP_pressure;BME280_temperature;BME280_humidity;BME280_pressure;Samples;Min_cycle;Max_cycle;Signal;HPM_P1;HPM_P2
2022/06/28 00:02:04;;;;;;;4.10;3.70;;;;;;;23.22;92.82;100319.41;4393009;32;20090;-78
2022/06/28 00:04:32;;;;;;;4.62;4.18;;;;;;;23.19;91.75;100330.34;4393047;32;20102;-79
2022/06/28 00:06:59;;;;;;;7.07;4.00;;;;;;;23.25;90.94;100333.50;4393071;32;20145;-78
2022/06/28 00:09:26;;;;;;;7.20;3.83;;;;;;;23.22;91.53;100341.75;4392931;32;20098;-78
2022/06/28 00:11:54;;;;;;;4.47;4.07;;;;;;;23.21;91.28;100342.69;4392922;32;20506;-78
2022/06/28 00:17:08;;;;;;;6.68;4.10;;;;;;;23.27;90.42;100350.38;4392882;32;20484;-78
2022/06/28 00:19:35;;;;;;;4.65;3.97;;;;;;;23.32;89.46;100347.38;4393171;32;20082;-78
2022/06/28 00:22:02;;;;;;;5.18;3.70;;;;;;;23.19;90.79;100343.78;4392874;32;20102;-78
2022/06/28 00:24:30;;;;;;;8.90;3.58;;;;;;;23.16;90.42;100343.97;4392992;32;20168;-78
2022/06/28 00:26:57;;;;;;;5.25;3.67;;;;;;;23.19;90.47;100343.78;4392836;32;20473;-78
2022/06/28 00:29:24;;;;;;;6.18;3.42;;;;;;;23.16;90.14;100334.09;4392324;32;20462;-78
2022/06/28 00:31:52;;;;;;;6.80;3.55;;;;;;;23.12;90.39;100333.44;4392516;32;20094;-78
2022/06/28 00:34:19;;;;;;;3.80;3.45;;;;;;;23.08;91.38;100331.03;4392961;32;20205;-78
2022/06/28 00:36:46;;;;;;;9.23;4.90;;;;;;;23.04;91.08;100333.06;4392869;32;20082;-78
2022/06/28 00:39:14;;;;;;;3.92;3.60;;;;;;;23.03;91.88;100339.38;4392813;32;20089;-78
2022/06/28 00:41:43;;;;;;;4.20;3.45;;;;;;;23.01;92.32;100332.41;4392713;32;20094;-78
2022/06/28 00:44:11;;;;;;;5.50;3.53;;;;;;;22.95;93.09;100340.84;4392928;32;20693;-78
2022/06/28 00:46:39;;;;;;;7.55;3.40;;;;;;;22.88;93.59;100349.25;4392833;32;20085;-78
2022/06/28 00:49:07;;;;;;;3.62;3.37;;;;;;;22.86;92.42;100340.47;4392674;32;20181;-78
2022/06/28 00:51:34;;;;;;;9.07;3.65;;;;;;;22.79;91.87;100347.19;4392628;32;20098;-78
2022/06/28 00:54:02;;;;;;;6.30;3.45;;;;;;;22.76;91.78;100350.06;4392619;32;20102;-78
2022/06/28 00:56:29;;;;;;;5.43;3.50;;;;;;;22.76;91.54;100349.19;4392664;32;20529;-78
2022/06/28 00:58:57;;;;;;;4.55;3.30;;;;;;;22.77;91.92;100346.41;4392489;32;20090;-78
2022/06/28 01:01:26;;;;;;;8.75;4.28;;;;;;;22.73;94.26;100341.31;4378209;32;20490;-78
2022/06/28 01:03:54;;;;;;;3.72;3.42;;;;;;;22.69;92.42;100351.41;4392685;32;20114;-78
2022/06/28 01:06:21;;;;;;;4.72;3.65;;;;;;;22.68;93.72;100346.97;4392513;32;20236;-78
2022/06/28 01:08:49;;;;;;;3.37;3.03;;;;;;;22.63;93.17;100363.38;4392483;32;20535;-78
2022/06/28 01:11:20;;;;;;;7.62;3.45;;;;;;;22.67;91.13;100361.38;4392471;32;20098;-78
2022/06/28 01:13:59;;;;;;;6.45;3.50;;;;;;;22.73;91.18;100362.81;4392583;32;20114;-78
2022/06/28 01:16:27;;;;;;;10.35;3.78;;;;;;;22.71;90.73;100362.87;4392384;32;20090;-78
2022/06/28 01:18:56;;;;;;;8.55;3.53;;;;;;;22.69;91.41;100359.47;4392530;32;20172;-78
2022/06/28 01:21:27;;;;;;;8.63;3.37;;;;;;;22.67;90.84;100358.69;4392391;32;20089;-78
2022/06/28 01:23:57;;;;;;;6.00;3.40;;;;;;;22.67;90.97;100361.38;4392563;32;20106;-78
2022/06/28 01:26:26;;;;;;;5.30;2.95;;;;;;;22.71;91.95;100354.84;4392515;32;20537;-78
2022/06/28 01:28:54;;;;;;;6.62;3.60;;;;;;;22.70;90.11;100353.13;4392488;32;20160;-78
2022/06/28 01:31:23;;;;;;;8.05;3.55;;;;;;;22.73;89.43;100363.66;4392492;32;20171;-78
2022/06/28 01:33:52;;;;;;;5.00;3.20;;;;;;;22.75;90.87;100367.09;4392316;32;20615;-78
2022/06/28 01:36:20;;;;;;;11.23;3.85;;;;;;;22.65;90.34;100366.84;4392176;32;20109;-78
2022/06/28 01:38:48;;;;;;;6.55;3.37;;;;;;;22.61;92.33;100351.00;4392381;32;20200;-78
2022/06/28 01:41:33;;;;;;;3.97;3.58;;;;;;;22.55;92.96;100351.41;4392661;32;20478;-78
2022/06/28 01:44:04;;;;;;;6.55;3.50;;;;;;;22.49;93.12;100349.09;4394233;32;20517;-78
2022/06/28 01:46:34;;;;;;;3.45;3.12;;;;;;;22.48;91.67;100347.38;4394256;32;20147;-78
2022/06/28 01:49:04;;;;;;;4.22;3.70;;;;;;;22.46;91.44;100342.06;4394147;32;20436;-78
2022/06/28 01:51:32;;;;;;;12.55;3.47;;;;;;;22.45;91.57;100353.78;4393952;32;20458;-78
2022/06/28 01:54:00;;;;;;;3.33;3.03;;;;;;;22.41;92.67;100358.47;4394241;32;20094;-78
2022/06/28 01:56:30;;;;;;;4.32;3.60;;;;;;;22.40;92.68;100351.41;4394106;32;20112;-78
2022/06/28 01:58:57;;;;;;;6.35;3.08;;;;;;;22.38;92.88;100363.16;4393861;32;20448;-78
2022/06/28 02:01:27;;;;;;;3.90;3.30;;;;;;;22.33;93.23;100371.53;4393655;32;20110;-78
2022/06/28 02:03:55;;;;;;;7.60;3.37;;;;;;;22.28;94.72;100373.59;4393967;32;20102;-78
2022/06/28 02:06:23;;;;;;;4.10;3.20;;;;;;;22.23;93.44;100369.50;4393936;32;20094;-78
2022/06/28 02:08:51;;;;;;;8.05;3.90;;;;;;;22.19;95.22;100371.47;4393762;32;20836;-78
2022/06/28 02:11:20;;;;;;;12.48;3.35;;;;;;;22.15;94.83;100369.91;4380054;32;20554;-78
2022/06/28 02:13:47;;;;;;;3.47;3.15;;;;;;;22.10;94.59;100367.50;4393563;32;20090;-78
2022/06/28 02:16:15;;;;;;;6.00;3.20;;;;;;;22.07;95.74;100373.03;4393911;32;20427;-78
2022/06/28 02:18:43;;;;;;;4.72;3.30;;;;;;;22.06;96.43;100367.78;4393578;32;20495;-78
2022/06/28 02:21:10;;;;;;;3.12;2.85;;;;;;;22.01;96.59;100375.22;4393837;32;20161;-78
2022/06/28 02:23:38;;;;;;;6.32;2.95;;;;;;;22.00;95.16;100371.69;4393629;32;20475;-78
2022/06/28 02:26:11;;;;;;;5.43;3.00;;;;;;;22.04;95.64;100369.66;4393958;32;20434;-78
2022/06/28 02:28:38;;;;;;;6.53;3.85;;;;;;;22.03;96.35;100360.75;4393686;32;20093;-78
2022/06/28 02:31:14;;;;;;;3.75;3.22;;;;;;;22.00;95.81;100354.72;4393669;32;20133;-79
2022/06/28 02:33:42;;;;;;;9.70;3.45;;;;;;;22.03;96.13;100359.91;4393593;32;20182;-78
2022/06/28 02:41:42;;;;;;;5.18;3.20;;;;;;;22.09;96.51;100375.66;4393666;32;20113;-78
2022/06/28 02:44:10;;;;;;;5.35;3.37;;;;;;;22.04;96.58;100383.94;4393596;32;20181;-78
2022/06/28 02:46:37;;;;;;;5.03;3.20;;;;;;;21.95;97.49;100384.50;4393649;32;20108;-78
2022/06/28 02:49:05;;;;;;;4.78;3.35;;;;;;;21.94;97.71;100386.34;4393518;32;20725;-78
2022/06/28 02:51:33;;;;;;;8.70;3.30;;;;;;;21.91;97.58;100381.16;4393488;32;20176;-78
2022/06/28 02:54:00;;;;;;;6.57;2.97;;;;;;;21.91;98.13;100377.59;4392949;32;20793;-78
2022/06/28 02:56:27;;;;;;;8.77;3.85;;;;;;;21.85;98.65;100375.28;4393451;32;20547;-78
2022/06/28 02:58:55;;;;;;;3.75;3.05;;;;;;;21.80;99.79;100375.56;4393605;32;20094;-78
2022/06/28 03:01:22;;;;;;;7.05;3.15;;;;;;;21.77;99.62;100369.47;4393649;32;20098;-78
2022/06/28 03:03:50;;;;;;;5.05;3.17;;;;;;;;;;4393668;32;20177;-78
2022/06/28 03:06:17;;;;;;;4.80;3.25;;;;;;;21.84;97.45;100361.00;4393528;32;20108;-78
2022/06/28 03:08:45;;;;;;;5.18;3.00;;;;;;;21.91;97.87;100361.50;4393438;32;20128;-78
2022/06/28 03:11:12;;;;;;;4.35;2.83;;;;;;;21.96;96.98;100357.59;4393345;32;20469;-78
2022/06/28 03:13:39;;;;;;;7.25;2.95;;;;;;;22.01;97.41;100364.50;4393301;32;20109;-78
2022/06/28 03:16:07;;;;;;;8.02;3.10;;;;;;;22.01;97.41;100362.66;4393305;32;20116;-78
2022/06/28 03:18:34;;;;;;;3.55;3.25;;;;;;;22.08;94.80;100361.34;4393312;32;20455;-78
2022/06/28 03:21:03;;;;;;;4.25;2.72;;;;;;;22.11;94.93;100369.22;4393228;32;20102;-78
2022/06/28 03:23:30;;;;;;;3.20;2.90;;;;;;;22.24;95.17;100374.75;4393363;32;20641;-78
2022/06/28 03:25:58;;;;;;;8.90;3.50;;;;;;;22.35;96.22;100382.16;4393257;32;20402;-78
2022/06/28 03:28:25;;;;;;;3.72;3.08;;;;;;;22.42;95.88;100383.50;4393237;32;20101;-78
2022/06/28 03:30:52;;;;;;;5.32;3.03;;;;;;;22.48;93.29;100401.06;4393449;32;20101;-78
2022/06/28 03:33:20;;;;;;;4.65;2.80;;;;;;;22.62;93.02;100411.81;4393162;32;20457;-78
2022/06/28 03:35:47;;;;;;;8.05;2.87;;;;;;;22.78;90.79;100427.84;4393331;32;20098;-78
2022/06/28 03:38:14;;;;;;;2.90;2.70;;;;;;;22.95;89.15;100434.91;4393417;32;20159;-78
2022/06/28 03:40:45;;;;;;;8.88;2.90;;;;;;;23.09;88.57;100446.50;4393269;32;20220;-78
2022/06/28 03:43:12;;;;;;;7.00;3.20;;;;;;;23.25;87.40;100464.34;4393252;32;20525;-78
2022/06/28 03:45:39;;;;;;;6.00;3.30;;;;;;;23.32;88.98;100469.25;4393344;32;20093;-78
2022/06/28 03:48:11;;;;;;;6.45;2.85;;;;;;;23.35;90.23;100463.66;4393327;32;20110;-78
2022/06/28 03:50:43;;;;;;;4.28;2.90;;;;;;;23.41;90.08;100477.69;4393394;32;20085;-78
2022/06/28 03:53:10;;;;;;;3.78;2.90;;;;;;;23.55;90.03;100480.34;4392857;32;20124;-78
2022/06/28 03:55:38;;;;;;;6.47;2.90;;;;;;;23.69;86.94;100491.13;4393226;32;20156;-78
2022/06/28 03:58:06;;;;;;;10.23;3.05;;;;;;;23.99;85.45;100493.66;4393281;32;20172;-78
2022/06/28 04:00:34;;;;;;;12.57;3.33;;;;;;;24.07;83.88;100495.81;4392960;32;20489;-78
2022/06/28 04:03:02;;;;;;;5.32;2.92;;;;;;;24.17;82.90;100496.94;4392821;32;20489;-77
2022/06/28 04:05:30;;;;;;;2.60;2.50;;;;;;;24.34;83.53;100490.41;4391796;32;20094;-78
2022/06/28 04:07:57;;;;;;;5.00;3.00;;;;;;;24.62;87.48;100491.25;4393145;32;20093;-78
2022/06/28 04:10:25;;;;;;;10.45;3.87;;;;;;;24.70;88.92;100492.47;4393671;32;20853;-78
2022/06/28 04:12:58;;;;;;;5.12;3.47;;;;;;;24.88;87.71;100500.25;4393810;32;20101;-77
2022/06/28 04:15:26;;;;;;;9.20;3.58;;;;;;;25.04;87.52;100500.88;4393198;32;20079;-77
2022/06/28 04:17:54;;;;;;;8.95;3.37;;;;;;;25.13;83.94;100505.66;4392762;32;20107;-78
2022/06/28 04:20:25;;;;;;;5.53;3.30;;;;;;;25.32;84.11;100517.84;4393172;32;20461;-77
2022/06/28 04:22:57;;;;;;;10.63;3.15;;;;;;;25.65;82.62;100519.94;4393030;32;20527;-78
2022/06/28 04:25:24;;;;;;;19.37;3.55;;;;;;;26.00;79.94;100530.88;4393024;32;20180;-77
2022/06/28 04:27:56;;;;;;;46.50;5.85;;;;;;;26.20;81.56;100524.00;4392625;32;20102;-78
2022/06/28 04:30:25;;;;;;;5.97;2.60;;;;;;;26.61;76.82;100525.44;4392512;32;20180;-78
2022/06/28 04:32:53;;;;;;;5.05;2.50;;;;;;;26.97;72.82;100516.31;4392201;32;20141;-77
2022/06/28 04:35:21;;;;;;;5.50;3.03;;;;;;;27.07;69.21;100511.91;4393840;32;20086;-77
2022/06/28 04:37:48;;;;;;;4.32;3.37;;;;;;;27.13;67.88;100510.56;4393305;32;20087;-77
2022/06/28 04:40:17;;;;;;;21.37;3.90;;;;;;;26.89;71.80;100529.56;4393572;32;20587;-78
2022/06/28 04:42:45;;;;;;;10.70;3.20;;;;;;;26.76;77.54;100545.87;4392894;32;20470;-77
2022/06/28 04:45:13;;;;;;;13.02;3.53;;;;;;;26.13;76.61;100541.63;4377678;32;20094;-77
2022/06/28 04:47:43;;;;;;;5.75;3.00;;;;;;;26.25;75.03;100556.91;4391299;32;20475;-77
2022/06/28 04:50:11;;;;;;;10.80;3.37;;;;;;;26.04;75.85;100580.97;4391833;32;20109;-77
2022/06/28 04:52:38;;;;;;;10.18;3.37;;;;;;;25.86;75.61;100587.72;4390819;32;20539;-77
2022/06/28 04:55:07;;;;;;;14.32;3.67;;;;;;;25.98;75.39;100576.03;4391593;32;20093;-78
2022/06/28 04:57:34;;;;;;;7.97;2.87;;;;;;;25.88;73.55;100575.84;4391684;32;20097;-78
2022/06/28 05:00:04;;;;;;;6.32;2.90;;;;;;;25.92;72.39;100574.62;4377525;32;20140;-77
2022/06/28 05:02:34;;;;;;;5.82;3.30;;;;;;;25.95;72.20;100584.38;4377719;32;20109;-79
2022/06/28 05:05:04;;;;;;;10.60;3.10;;;;;;;25.99;71.74;100583.16;4393268;32;20086;-79
2022/06/28 05:07:34;;;;;;;7.55;3.20;;;;;;;26.06;71.96;100576.34;4393605;32;20086;-77
2022/06/28 05:10:03;;;;;;;8.88;2.62;;;;;;;26.13;71.67;100572.19;4393289;32;20094;-78
2022/06/28 05:12:31;;;;;;;11.38;3.08;;;;;;;26.24;71.49;100571.41;4393351;32;20481;-77
2022/06/28 05:15:01;;;;;;;11.50;3.37;;;;;;;26.32;70.50;100578.94;4392863;32;20426;-77
2022/06/28 05:17:29;;;;;;;8.93;3.15;;;;;;;26.29;70.12;100565.66;4392592;32;20116;-77
2022/06/28 05:19:56;;;;;;;7.53;2.87;;;;;;;26.27;70.03;100581.12;4392770;32;20110;-77
2022/06/28 05:22:24;;;;;;;8.25;2.80;;;;;;;26.24;69.84;100598.41;4392311;32;20549;-77
2022/06/28 05:24:55;;;;;;;15.95;3.05;;;;;;;26.25;72.68;100588.47;4392414;32;20074;-77
2022/06/28 05:27:22;;;;;;;9.68;2.85;;;;;;;26.15;77.71;100582.91;4392379;32;20098;-77
2022/06/28 05:29:50;;;;;;;11.68;3.10;;;;;;;25.81;83.89;100550.28;4392297;32;20162;-77
2022/06/28 05:32:17;;;;;;;13.95;3.65;;;;;;;25.51;89.22;100546.09;4392171;32;20475;-78
2022/06/28 05:34:45;;;;;;;20.70;3.22;;;;;;;25.43;90.44;100548.47;4392002;32;20105;-78
2022/06/28 05:37:12;;;;;;;5.93;2.83;;;;;;;25.35;92.14;100542.75;4392359;32;20094;-77
2022/06/28 05:39:39;;;;;;;11.18;2.97;;;;;;;25.35;93.49;100537.38;4392453;32;20146;-77
2022/06/28 05:42:06;;;;;;;6.47;3.10;;;;;;;25.36;92.72;100549.88;4392171;32;20093;-76
2022/06/28 05:44:34;;;;;;;9.45;3.75;;;;;;;25.38;91.94;100542.53;4391983;32;20680;-77
2022/06/28 05:47:01;;;;;;;11.98;3.25;;;;;;;25.43;94.18;100515.22;4392451;32;20143;-77
2022/06/28 05:49:28;;;;;;;18.42;3.97;;;;;;;25.36;99.98;100485.13;4392323;32;20563;-76
2022/06/28 05:51:56;;;;;;;7.60;2.85;;;;;;;25.10;100.00;100469.94;4391987;32;20097;-76
2022/06/28 05:54:24;;;;;;;6.50;2.87;;;;;;;24.94;100.00;100462.06;4391985;32;20155;-76
2022/06/28 05:56:51;;;;;;;4.37;2.62;;;;;;;24.78;100.00;100459.59;4391733;32;20120;-76
2022/06/28 05:59:18;;;;;;;9.60;3.35;;;;;;;24.68;100.00;100450.41;4391821;32;20167;-77
2022/06/28 06:01:46;;;;;;;7.12;3.20;;;;;;;24.52;100.00;100447.91;4391666;32;20102;-76
2022/06/28 06:04:14;;;;;;;5.85;3.47;;;;;;;24.37;100.00;100462.41;4391706;32;20152;-76
2022/06/28 06:06:42;;;;;;;5.07;3.10;;;;;;;24.36;100.00;100493.00;4391610;32;20492;-76
2022/06/28 06:09:09;;;;;;;8.30;3.72;;;;;;;24.16;100.00;100467.41;4392113;32;20776;-76
2022/06/28 06:11:36;;;;;;;8.07;4.55;;;;;;;24.07;100.00;100468.91;4391808;32;20094;-76
2022/06/28 06:14:05;;;;;;;13.85;3.97;;;;;;;23.88;100.00;100468.38;4391527;32;20522;-77
2022/06/28 06:16:32;;;;;;;13.73;4.55;;;;;;;23.80;100.00;100461.69;4391779;32;20379;-76
2022/06/28 06:19:00;;;;;;;9.93;4.10;;;;;;;23.70;100.00;100465.94;4391149;32;20435;-76
2022/06/28 06:21:27;;;;;;;12.40;4.43;;;;;;;23.58;100.00;100440.69;4391590;32;20513;-76
2022/06/28 06:23:54;;;;;;;9.63;4.53;;;;;;;23.57;100.00;100435.41;4391618;32;20109;-76
2022/06/28 06:26:24;;;;;;;14.13;4.53;;;;;;;23.43;100.00;100447.06;4391578;32;20120;-77
2022/06/28 06:28:51;;;;;;;17.25;5.47;;;;;;;23.37;100.00;100447.44;4378885;32;20101;-78
2022/06/28 06:31:19;;;;;;;12.32;5.15;;;;;;;23.30;100.00;100456.88;4393692;32;20106;-76
2022/06/28 06:33:49;;;;;;;14.20;4.70;;;;;;;23.27;100.00;100468.66;4379829;32;20121;-74
2022/06/28 06:36:17;;;;;;;15.93;4.90;;;;;;;23.21;100.00;100498.63;4394367;32;20730;-75
2022/06/28 06:38:44;;;;;;;12.25;4.97;;;;;;;23.19;100.00;100492.50;4394329;32;20193;-75
2022/06/28 06:41:11;;;;;;;10.43;4.93;;;;;;;22.99;100.00;100468.69;4394373;32;20137;-75
2022/06/28 06:43:40;;;;;;;17.52;4.53;;;;;;;23.03;100.00;100454.94;4380258;32;20152;-75
2022/06/28 06:46:07;;;;;;;12.32;5.60;;;;;;;23.11;100.00;100454.50;4394263;32;20515;-74
2022/06/28 06:48:36;;;;;;;12.48;6.50;;;;;;;23.14;100.00;100443.50;4394389;32;20094;-75
2022/06/28 06:51:04;;;;;;;17.67;5.87;;;;;;;23.35;100.00;100427.84;4394364;32;20139;-76
2022/06/28 06:53:32;;;;;;;10.63;5.25;;;;;;;23.54;100.00;100466.06;4394213;32;20176;-73
2022/06/28 06:55:59;;;;;;;14.50;5.18;;;;;;;23.40;100.00;100495.66;4394380;32;20135;-73
2022/06/28 06:58:26;;;;;;;19.02;5.75;;;;;;;23.30;100.00;100491.81;4394222;32;20207;-78
2022/06/28 07:00:54;;;;;;;16.35;5.03;;;;;;;23.34;100.00;100550.66;4396344;32;20113;-76
2022/06/28 07:03:21;;;;;;;12.32;4.82;;;;;;;23.25;100.00;100537.81;4409297;32;20389;-76
2022/06/28 07:05:49;;;;;;;9.95;5.10;;;;;;;23.11;100.00;100513.62;4408232;32;20102;-77
2022/06/28 07:08:17;;;;;;;14.30;5.12;;;;;;;23.22;100.00;100527.25;4409168;32;20098;-76
2022/06/28 07:10:48;;;;;;;18.17;4.93;;;;;;;23.05;100.00;100524.75;4407734;32;20247;-75
2022/06/28 07:13:15;;;;;;;12.00;4.22;;;;;;;22.98;100.00;100531.44;4407437;32;20074;-75
2022/06/28 07:15:43;;;;;;;11.82;4.10;;;;;;;23.03;100.00;100524.81;4408652;32;20111;-75
2022/06/28 07:18:11;;;;;;;17.58;2.92;;;;;;;22.72;100.00;100490.00;4408497;32;20468;-76
2022/06/28 07:20:38;;;;;;;13.40;2.70;;;;;;;22.84;100.00;100482.06;4408696;32;20109;-77
2022/06/28 07:23:06;;;;;;;9.63;3.05;;;;;;;23.23;100.00;100496.72;4408485;32;20086;-77
2022/06/28 07:25:34;;;;;;;12.85;2.62;;;;;;;23.06;100.00;100486.16;4408725;32;20094;-74
2022/06/28 07:28:02;;;;;;;11.30;3.08;;;;;;;22.95;100.00;100478.75;4408650;32;20089;-76
2022/06/28 07:30:29;;;;;;;10.57;3.03;;;;;;;22.88;100.00;100477.37;4408588;32;20101;-76
2022/06/28 07:32:56;;;;;;;8.77;2.72;;;;;;;22.79;100.00;100473.44;4408434;32;20090;-75
2022/06/28 07:35:25;;;;;;;12.90;2.65;;;;;;;22.78;100.00;100458.25;4409049;32;20805;-75
2022/06/28 07:37:52;;;;;;;10.48;2.55;;;;;;;22.90;100.00;100464.72;4409061;32;20090;-75
2022/06/28 07:40:23;;;;;;;8.05;2.83;;;;;;;22.88;100.00;100470.16;4409368;32;20127;-74
2022/06/28 07:42:55;;;;;;;16.50;2.47;;;;;;;22.92;100.00;100478.94;4408419;32;20124;-76
2022/06/28 07:45:24;;;;;;;14.77;3.05;;;;;;;22.96;100.00;100483.16;4407637;32;20098;-77
2022/06/28 07:47:59;;;;;;;15.52;3.62;;;;;;;23.27;100.00;100479.41;4407573;32;20102;-78
2022/06/28 07:53:16;;;;;;;11.98;2.75;;;;;;;23.50;100.00;100493.22;4404010;32;20085;-76
2022/06/28 07:55:50;;;;;;;16.48;2.70;;;;;;;23.67;100.00;100511.87;4395736;32;20425;-76
2022/06/28 07:58:23;;;;;;;15.77;3.15;;;;;;;23.83;100.00;100520.69;4409282;32;20089;-79
2022/06/28 08:00:50;;;;;;;8.57;2.65;;;;;;;24.13;100.00;100516.06;4409371;32;20730;-77
2022/06/28 08:03:18;;;;;;;8.82;2.40;;;;;;;24.31;100.00;100525.63;4408586;32;20102;-76
2022/06/28 08:05:45;;;;;;;11.35;2.12;;;;;;;24.16;100.00;100529.34;4408446;32;20136;-75
2022/06/28 08:08:13;;;;;;;13.73;2.45;;;;;;;24.12;100.00;100528.69;4409308;32;20187;-74
2022/06/28 08:10:40;;;;;;;10.90;2.42;;;;;;;24.07;100.00;100520.06;4408937;32;20136;-76
2022/06/28 08:13:09;;;;;;;13.70;2.80;;;;;;;23.95;100.00;100512.78;4408876;32;20119;-76
2022/06/28 08:15:44;;;;;;;15.35;3.08;;;;;;;24.30;100.00;100519.38;4408724;32;20077;-76
2022/06/28 08:18:13;;;;;;;9.15;2.97;;;;;;;24.42;100.00;100514.19;4407815;32;20109;-76
2022/06/28 08:20:41;;;;;;;12.27;2.60;;;;;;;24.55;100.00;100517.75;4408805;32;20785;-76
2022/06/28 08:23:09;;;;;;;12.23;2.47;;;;;;;24.69;100.00;100517.66;4408651;32;20109;-76
2022/06/28 08:25:37;;;;;;;14.38;2.70;;;;;;;25.09;100.00;100511.31;4408333;32;20116;-76
2022/06/28 08:28:05;;;;;;;10.82;2.53;;;;;;;25.09;100.00;100517.63;4408295;32;20101;-76
2022/06/28 08:30:33;;;;;;;5.07;2.10;;;;;;;25.37;100.00;100515.66;4408309;32;20089;-76
2022/06/28 08:33:00;;;;;;;5.28;2.22;;;;;;;25.56;100.00;100516.06;4402921;32;20363;-76
2022/06/28 08:35:27;;;;;;;13.27;2.50;;;;;;;25.57;100.00;100525.88;4401365;32;20086;-76
2022/06/28 08:37:55;;;;;;;7.50;1.98;;;;;;;26.03;100.00;100538.75;4407514;32;20160;-75
2022/06/28 08:40:25;;;;;;;5.18;2.03;;;;;;;25.91;100.00;100542.37;4406962;32;20541;-76
2022/06/28 08:42:54;;;;;;;12.27;2.58;;;;;;;27.10;100.00;100538.72;4407854;32;20135;-76
2022/06/28 08:45:22;;;;;;;5.03;1.90;;;;;;;27.97;94.83;100554.38;4407510;32;20507;-76
2022/06/28 08:47:54;;;;;;;8.15;2.00;;;;;;;28.12;89.84;100561.22;4406539;32;20552;-76
2022/06/28 08:50:34;;;;;;;7.97;1.85;;;;;;;27.70;90.95;100554.75;4406895;32;20172;-76
2022/06/28 08:53:04;;;;;;;3.85;1.75;;;;;;;27.64;94.14;100556.13;4407029;32;20481;-75
2022/06/28 08:55:34;;;;;;;5.72;2.00;;;;;;;27.68;93.83;100554.88;4405857;32;20090;-76
2022/06/28 08:58:05;;;;;;;4.87;1.90;;;;;;;28.11;90.58;100559.53;4407264;32;20096;-75
2022/06/28 09:00:32;;;;;;;8.23;2.60;;;;;;;28.48;89.90;100564.59;4405248;32;20129;-76
2022/06/28 09:03:00;;;;;;;10.98;2.62;;;;;;;28.43;89.36;100562.28;4399998;32;20104;-75
2022/06/28 09:05:28;;;;;;;9.35;2.53;;;;;;;28.55;87.72;100571.22;4406353;32;20422;-76
2022/06/28 09:07:59;;;;;;;5.35;2.10;;;;;;;28.82;91.76;100574.31;4408156;32;20097;-77
2022/06/28 09:10:27;;;;;;;6.87;2.03;;;;;;;28.99;92.90;100581.03;4408122;32;20101;-76
2022/06/28 09:13:16;;;;;;;6.97;1.90;;;;;;;28.81;92.25;100583.44;4406309;32;20090;-76
2022/06/28 09:16:01;;;;;;;11.90;2.30;;;;;;;28.77;95.40;100589.28;4407779;32;20094;-79
2022/06/28 09:18:38;;;;;;;8.07;2.23;;;;;;;28.95;93.02;100589.56;4411573;32;20090;-76
2022/06/28 09:21:08;;;;;;;7.87;2.47;;;;;;;28.85;91.43;100589.47;4412368;32;20101;-76
2022/06/28 09:23:38;;;;;;;4.70;2.10;;;;;;;28.85;87.70;100591.31;4411734;32;20159;-77
2022/06/28 09:26:17;;;;;;;6.97;1.85;;;;;;;28.85;86.65;100584.03;4413779;32;20167;-76
2022/06/28 09:28:47;;;;;;;3.70;1.75;;;;;;;28.98;85.95;100594.72;4413897;32;20102;-77
2022/06/28 09:31:29;;;;;;;4.93;1.58;;;;;;;28.91;84.29;100597.09;4413140;32;20123;-77
2022/06/28 09:33:59;;;;;;;6.65;1.80;;;;;;;28.93;83.65;100596.94;4412484;32;20098;-77
2022/06/28 09:36:27;;;;;;;6.03;1.73;;;;;;;29.27;82.73;100590.38;4412264;32;20150;-76
2022/06/28 09:38:56;;;;;;;5.60;1.62;;;;;;;29.33;79.36;100590.81;4411433;32;20810;-76
2022/06/28 09:41:26;;;;;;;5.82;1.80;;;;;;;29.51;78.33;100595.50;4413621;32;20440;-77
2022/06/28 09:44:03;;;;;;;5.10;2.35;;;;;;;29.45;78.49;100601.47;4411722;32;20162;-77
2022/06/28 09:46:32;;;;;;;4.70;1.90;;;;;;;29.58;78.73;100597.66;4396554;32;20507;-77
2022/06/28 09:49:03;;;;;;;5.97;2.20;;;;;;;29.21;80.12;100592.75;4412137;32;20101;-76
2022/06/28 09:51:34;;;;;;;6.25;2.10;;;;;;;29.69;82.09;100592.19;4411464;32;20197;-76
2022/06/28 09:54:05;;;;;;;4.87;2.00;;;;;;;29.43;81.18;100592.56;4412187;32;20717;-76
2022/06/28 09:56:54;;;;;;;7.43;2.40;;;;;;;29.86;81.08;100591.53;4412888;32;20118;-76
2022/06/28 09:59:24;;;;;;;4.50;2.65;;;;;;;30.41;81.38;100591.97;4412718;32;20477;-76
2022/06/28 10:01:55;;;;;;;4.47;2.40;;;;;;;32.14;80.11;100586.34;4391910;32;20207;-76
2022/06/28 10:04:25;;;;;;;6.65;2.15;;;;;;;31.86;71.30;100585.50;4404142;32;20085;-76
2022/06/28 10:06:52;;;;;;;3.97;2.12;;;;;;;31.42;79.28;100595.25;4406948;32;20312;-76
2022/06/28 10:09:21;;;;;;;7.55;2.28;;;;;;;31.12;75.61;100601.72;4405907;32;20102;-76
2022/06/28 10:17:34;;;;;;;8.15;2.05;;;;;;;31.36;73.72;100591.25;4409751;32;20093;-73
2022/06/28 10:20:06;;;;;;;4.87;2.55;;;;;;;31.71;74.62;100600.59;4417797;32;20101;-76
2022/06/28 10:22:33;;;;;;;6.37;2.45;;;;;;;31.74;74.81;100592.13;4423798;32;21062;-75
2022/06/28 10:25:12;;;;;;;5.22;2.62;;;;;;;31.97;71.99;100591.75;4419269;32;20077;-75
2022/06/28 10:27:51;;;;;;;4.20;2.28;;;;;;;31.61;73.40;100586.16;4412030;32;20085;-75
2022/06/28 10:30:29;;;;;;;5.72;2.75;;;;;;;31.43;73.01;100583.34;4403043;32;20097;-75
2022/06/28 10:33:04;;;;;;;2.60;2.00;;;;;;;31.78;72.60;100587.25;4403999;32;20163;-75
2022/06/28 10:35:31;;;;;;;4.00;2.17;;;;;;;32.09;73.35;100582.38;4409807;32;20094;-76
2022/06/28 10:38:08;;;;;;;9.30;2.90;;;;;;;31.82;70.49;100583.19;4411303;32;20781;-75
2022/06/28 10:40:38;;;;;;;5.07;2.42;;;;;;;32.23;72.67;100576.41;4412365;32;20094;-77
2022/06/28 10:43:14;;;;;;;10.10;2.92;;;;;;;32.31;70.70;100584.66;4407698;32;20159;-75
2022/06/28 10:45:59;;;;;;;4.45;2.53;;;;;;;32.67;71.30;100575.66;4410962;32;20085;-77
2022/06/28 10:48:28;;;;;;;8.65;2.95;;;;;;;33.15;67.66;100582.59;4413183;32;20086;-75
2022/06/28 10:51:00;;;;;;;5.05;2.53;;;;;;;33.24;66.56;100578.88;4410119;32;20105;-74
2022/06/28 10:54:05;;;;;;;4.15;2.58;;;;;;;32.41;68.29;100568.28;4393280;32;20128;-74
2022/06/28 10:56:43;;;;;;;8.07;3.20;;;;;;;32.63;69.27;100569.66;4411715;32;20790;-75
2022/06/28 10:59:12;;;;;;;6.40;2.70;;;;;;;32.65;66.04;100566.75;4411910;32;20077;-76
2022/06/28 11:01:39;;;;;;;5.12;2.83;;;;;;;33.35;63.76;100562.22;4412190;32;20105;-75
2022/06/28 11:04:24;;;;;;;5.10;2.80;;;;;;;33.09;63.58;100554.03;4414263;32;20180;-76
2022/06/28 11:06:56;;;;;;;5.70;2.45;;;;;;;33.19;67.34;100556.66;4414897;32;20208;-75
2022/06/28 11:09:48;;;;;;;7.00;2.60;;;;;;;33.97;64.40;100562.03;4414444;32;20094;-75
2022/06/28 11:12:37;;;;;;;9.30;3.25;;;;;;;33.79;62.11;100554.78;4411221;32;20097;-73
2022/06/28 11:15:07;;;;;;;3.50;2.72;;;;;;;34.07;59.69;100556.47;4412222;32;20132;-75
2022/06/28 11:17:43;;;;;;;11.82;2.72;;;;;;;33.41;61.23;100549.78;4412267;32;20582;-74
2022/06/28 11:20:15;;;;;;;3.75;2.97;;;;;;;33.90;59.64;100550.91;4413395;32;20120;-75
2022/06/28 11:22:43;;;;;;;4.03;2.45;;;;;;;33.85;60.91;100547.78;4411966;32;20417;-75
2022/06/28 11:25:14;;;;;;;3.42;2.22;;;;;;;34.31;58.01;100552.91;4412786;32;20143;-74
2022/06/28 11:27:53;;;;;;;5.35;2.47;;;;;;;34.73;55.06;100550.06;4413083;32;20184;-74
2022/06/28 11:30:27;;;;;;;9.75;2.70;;;;;;;34.54;55.77;100548.53;4408293;32;20074;-73
2022/06/28 11:32:58;;;;;;;4.82;2.55;;;;;;;35.44;51.65;100543.84;4413211;32;20098;-73
2022/06/28 11:35:28;;;;;;;4.93;2.50;;;;;;;36.18;48.31;100548.16;4413223;32;20149;-73
2022/06/28 11:38:07;;;;;;;7.70;2.58;;;;;;;36.91;47.21;100546.78;4411521;32;20085;-73
2022/06/28 11:40:39;;;;;;;4.37;2.42;;;;;;;37.63;43.80;100544.34;4413879;32;20131;-73
2022/06/28 11:43:12;;;;;;;7.53;2.92;;;;;;;38.11;42.35;100536.50;4412112;32;20163;-73
2022/06/28 11:45:43;;;;;;;5.03;2.42;;;;;;;39.68;39.56;100530.84;4411913;32;20109;-74
2022/06/28 11:48:15;;;;;;;4.32;2.58;;;;;;;39.83;38.78;100525.22;4411380;32;20441;-74
2022/06/28 11:50:46;;;;;;;9.20;2.65;;;;;;;39.08;39.63;100524.09;4414323;32;20457;-74